createdAt,value
2018-12-09T00:00:28.372Z,72.60
2018-12-09T00:02:56.767Z,73.10
2018-12-09T00:05:25.127Z,71.50
2018-12-09T00:07:53.591Z,72.20
2018-12-09T00:10:22.097Z,69.40
2018-12-09T00:12:59.251Z,70.50
2018-12-09T00:15:27.655Z,73.00
2018-12-09T00:17:56.408Z,73.70
2018-12-09T00:20:24.784Z,75.00
2018-12-09T00:22:53.181Z,73.30
2018-12-09T00:25:21.651Z,73.20
2018-12-09T00:27:49.962Z,72.60
2018-12-09T00:30:18.228Z,72.40
2018-12-09T00:32:55.171Z,72.80
2018-12-09T00:35:23.427Z,73.50
2018-12-09T00:37:51.802Z,72.70
2018-12-09T00:40:20.276Z,71.80
2018-12-09T00:43:07.743Z,72.70
2018-12-09T00:45:36.197Z,73.60
2018-12-09T00:48:04.542Z,74.00
2018-12-09T00:50:32.865Z,75.00
2018-12-09T00:53:01.194Z,74.90
2018-12-09T00:55:29.594Z,74.90
2018-12-09T00:57:57.878Z,73.30
2018-12-09T01:00:26.414Z,73.90
2018-12-09T01:02:55.050Z,74.00
2018-12-09T01:05:23.513Z,73.60
2018-12-09T01:13:40.682Z,74.30
2018-12-09T01:16:09.048Z,73.80
2018-12-09T01:18:37.490Z,73.90
2018-12-09T01:21:05.904Z,73.50
2018-12-09T01:26:30.593Z,73.30
2018-12-09T01:28:59.871Z,75.20
2018-12-09T01:34:24.730Z,73.40
2018-12-09T01:36:53.368Z,74.00
2018-12-09T01:39:21.647Z,74.00
2018-12-09T01:41:49.939Z,74.10
2018-12-09T01:44:18.346Z,72.70
2018-12-09T01:46:46.635Z,73.40
2018-12-09T01:49:16.068Z,74.20
2018-12-09T01:51:44.437Z,74.40
2018-12-09T01:54:14.236Z,73.60
2018-12-09T01:56:43.726Z,74.80
2018-12-09T01:59:12.037Z,74.20
2018-12-09T02:01:40.628Z,73.80
2018-12-09T02:04:09.115Z,74.60
2018-12-09T02:06:37.406Z,72.40
2018-12-09T02:09:07.982Z,73.60
2018-12-09T02:11:36.909Z,72.90
2018-12-09T02:14:05.582Z,73.60
2018-12-09T02:16:34.311Z,72.30
2018-12-09T02:19:16.949Z,74.60
2018-12-09T02:21:45.594Z,73.90
2018-12-09T02:24:14.387Z,73.00
2018-12-09T02:26:43.229Z,76.20
2018-12-09T02:29:11.650Z,73.80
2018-12-09T02:31:40.052Z,73.80
2018-12-09T02:34:08.550Z,73.90
2018-12-09T02:36:37.321Z,73.50
2018-12-09T02:39:08.026Z,74.70
2018-12-09T02:41:36.325Z,75.20
2018-12-09T02:44:05.009Z,75.20
2018-12-09T02:46:35.100Z,75.00
2018-12-09T02:49:03.755Z,74.80
2018-12-09T02:51:32.271Z,74.80
2018-12-09T02:54:00.875Z,74.90
2018-12-09T02:56:29.145Z,75.70
2018-12-09T02:58:57.444Z,75.70
2018-12-09T03:01:25.799Z,76.90
2018-12-09T03:03:54.103Z,75.60
2018-12-09T03:06:22.499Z,76.00
2018-12-09T03:08:51.482Z,77.70
2018-12-09T03:11:19.788Z,76.80
2018-12-09T03:13:48.064Z,77.50
2018-12-09T03:16:16.406Z,77.60
2018-12-09T03:18:44.687Z,78.40
2018-12-09T03:21:12.960Z,78.70
2018-12-09T03:23:41.545Z,79.30
2018-12-09T03:26:09.844Z,79.00
2018-12-09T03:28:38.351Z,78.70
2018-12-09T03:31:07.425Z,79.40
2018-12-09T03:33:35.714Z,79.40
2018-12-09T03:36:04.119Z,79.80
2018-12-09T03:38:32.813Z,79.80
2018-12-09T03:41:01.292Z,80.00
2018-12-09T03:43:29.927Z,79.90
2018-12-09T03:45:58.479Z,80.00
2018-12-09T03:48:26.844Z,79.20
2018-12-09T03:50:55.140Z,79.20
2018-12-09T03:53:23.734Z,78.10
2018-12-09T03:55:52.221Z,78.70
2018-12-09T03:58:20.571Z,77.20
2018-12-09T04:00:49.150Z,78.50
2018-12-09T04:03:17.823Z,76.90
2018-12-09T04:05:46.257Z,76.90
2018-12-09T04:08:14.939Z,77.00
2018-12-09T04:10:43.263Z,77.00
2018-12-09T04:13:11.641Z,76.30
2018-12-09T04:15:42.875Z,78.00
2018-12-09T04:18:11.590Z,77.30
2018-12-09T04:20:40.004Z,76.80
2018-12-09T04:23:08.343Z,78.30
2018-12-09T04:25:36.651Z,76.60
2018-12-09T04:28:05.146Z,77.30
2018-12-09T04:30:33.810Z,77.20
2018-12-09T04:33:02.073Z,77.00
2018-12-09T04:35:30.482Z,75.60
2018-12-09T04:37:58.828Z,76.10
2018-12-09T04:40:27.196Z,75.50
2018-12-09T04:42:55.636Z,75.00
2018-12-09T04:45:23.954Z,76.10
2018-12-09T04:50:45.417Z,76.30
2018-12-09T04:53:13.722Z,75.70
2018-12-09T04:55:41.990Z,75.60
2018-12-09T04:58:10.682Z,75.10
2018-12-09T05:00:50.785Z,74.50
2018-12-09T05:03:19.609Z,74.00
2018-12-09T05:05:47.991Z,74.70
2018-12-09T05:08:16.257Z,76.10
2018-12-09T05:10:45.107Z,74.80
2018-12-09T05:13:13.419Z,74.40
2018-12-09T05:15:41.895Z,74.80
2018-12-09T05:18:10.180Z,75.40
2018-12-09T05:20:38.515Z,75.10
2018-12-09T05:23:06.805Z,74.30
2018-12-09T05:25:35.425Z,74.30
2018-12-09T05:28:03.798Z,73.60
2018-12-09T05:30:32.111Z,74.50
2018-12-09T05:33:01.021Z,75.60
2018-12-09T05:35:29.316Z,74.30
2018-12-09T05:37:57.603Z,75.70
2018-12-09T05:40:26.109Z,74.40
2018-12-09T05:42:54.407Z,75.30
2018-12-09T05:45:22.863Z,74.70
2018-12-09T05:47:51.505Z,74.80
2018-12-09T05:50:20.517Z,73.40
2018-12-09T05:52:48.812Z,73.90
2018-12-09T05:55:17.741Z,74.50
2018-12-09T05:57:46.458Z,74.20
2018-12-09T06:02:53.835Z,73.60
2018-12-09T06:05:22.478Z,74.30
2018-12-09T06:07:51.245Z,73.20
2018-12-09T06:10:19.852Z,74.20
2018-12-09T06:12:48.181Z,74.10
2018-12-09T06:15:17.739Z,74.50
2018-12-09T06:17:46.007Z,75.20
2018-12-09T06:20:14.310Z,74.90
2018-12-09T06:22:42.653Z,73.80
2018-12-09T06:25:11.409Z,74.10
2018-12-09T06:27:39.825Z,73.70
2018-12-09T06:30:10.359Z,73.50
2018-12-09T06:32:42.500Z,73.90
2018-12-09T06:35:10.806Z,72.60
2018-12-09T06:37:39.102Z,74.10
2018-12-09T06:40:07.772Z,73.30
2018-12-09T06:42:36.462Z,73.10
2018-12-09T06:45:06.094Z,72.40
2018-12-09T06:47:34.886Z,73.80
2018-12-09T06:50:04.229Z,73.60
2018-12-09T06:52:32.751Z,72.80
2018-12-09T06:55:01.289Z,74.20
2018-12-09T06:57:29.760Z,75.90
2018-12-09T06:59:58.060Z,73.60
2018-12-09T07:02:26.553Z,73.80
2018-12-09T07:04:57.885Z,74.10
2018-12-09T07:07:27.643Z,72.60
2018-12-09T07:09:56.424Z,73.10
2018-12-09T07:12:24.891Z,74.70
2018-12-09T07:14:53.821Z,74.80
2018-12-09T07:17:22.600Z,75.80
2018-12-09T07:19:51.087Z,76.20
2018-12-09T07:22:19.576Z,76.70
2018-12-09T07:24:47.913Z,76.10
2018-12-09T07:27:16.235Z,77.50
2018-12-09T07:29:44.725Z,77.30
2018-12-09T07:32:13.168Z,77.40
2018-12-09T07:34:41.486Z,77.70
2018-12-09T07:37:10.361Z,77.50
2018-12-09T07:39:38.948Z,77.30
2018-12-09T07:42:07.590Z,77.70
2018-12-09T07:44:36.433Z,79.00
2018-12-09T07:47:04.998Z,77.60
2018-12-09T07:49:33.814Z,78.40
2018-12-09T07:52:02.236Z,78.20
2018-12-09T07:54:31.286Z,78.50
2018-12-09T07:57:07.763Z,79.20
2018-12-09T07:59:55.751Z,77.80
2018-12-09T08:02:47.644Z,77.60
2018-12-09T08:05:40.462Z,77.90
2018-12-09T08:08:10.055Z,78.00
2018-12-09T08:10:40.839Z,77.40
2018-12-09T08:16:07.251Z,77.00
2018-12-09T08:18:45.528Z,77.80
2018-12-09T08:21:16.441Z,78.00
2018-12-09T08:23:50.209Z,77.50
2018-12-09T08:26:39.780Z,77.60
2018-12-09T08:29:08.635Z,78.10
2018-12-09T08:31:50.127Z,77.60
2018-12-09T08:47:50.383Z,78.80
2018-12-09T08:50:19.121Z,77.90
2018-12-09T08:52:53.453Z,78.30
2018-12-09T08:55:21.886Z,78.40
2018-12-09T08:57:50.369Z,79.00
2018-12-09T09:00:18.877Z,79.50
2018-12-09T09:08:45.705Z,78.60
2018-12-09T09:11:27.277Z,79.00
2018-12-09T09:13:55.749Z,78.20
2018-12-09T09:16:25.710Z,79.90
2018-12-09T09:21:31.228Z,77.50
2018-12-09T09:23:59.622Z,78.90
2018-12-09T09:26:28.794Z,77.90
2018-12-09T09:28:57.231Z,79.10
2018-12-09T09:31:31.304Z,78.20
2018-12-09T09:34:03.282Z,78.90
2018-12-09T09:36:31.994Z,80.00
2018-12-09T09:39:00.459Z,81.50
2018-12-09T09:41:29.854Z,82.00
2018-12-09T09:43:58.405Z,80.80
2018-12-09T09:46:27.359Z,81.30
2018-12-09T09:48:56.589Z,81.60
2018-12-09T09:51:25.059Z,81.80
2018-12-09T09:53:53.522Z,81.20
2018-12-09T09:56:22.930Z,81.20
2018-12-09T09:58:52.266Z,81.10
2018-12-09T10:01:26.106Z,81.70
2018-12-09T10:13:13.681Z,81.60
2018-12-09T10:15:42.063Z,81.60
2018-12-09T10:18:10.411Z,81.80
2018-12-09T10:20:38.929Z,82.00
2018-12-09T10:26:03.621Z,82.20
2018-12-09T10:28:32.847Z,80.40
2018-12-09T10:33:58.435Z,80.00
2018-12-09T10:36:27.324Z,80.00
2018-12-09T10:38:56.240Z,79.20
2018-12-09T10:41:24.834Z,79.40
2018-12-09T10:43:53.200Z,79.30
2018-12-09T10:46:21.946Z,77.80
2018-12-09T10:48:50.379Z,78.40
2018-12-09T10:51:28.642Z,78.70
2018-12-09T10:53:57.172Z,78.30
2018-12-09T10:56:26.555Z,77.00
2018-12-09T10:58:54.938Z,78.40
2018-12-09T11:01:31.683Z,78.30
2018-12-09T11:04:00.400Z,76.90
2018-12-09T11:06:29.372Z,78.40
2018-12-09T11:08:57.745Z,79.20
2018-12-09T11:11:29.595Z,79.00
2018-12-09T11:13:58.291Z,79.00
2018-12-09T11:18:53.407Z,79.60
2018-12-09T11:21:21.750Z,79.50
2018-12-09T11:23:50.138Z,81.00
2018-12-09T11:26:18.746Z,80.40
2018-12-09T11:28:47.131Z,80.20
2018-12-09T11:31:15.497Z,80.30
2018-12-09T11:33:43.806Z,80.00
2018-12-09T11:36:12.234Z,79.00
2018-12-09T11:38:41.909Z,78.10
2018-12-09T11:41:10.233Z,76.90
2018-12-09T11:43:38.526Z,74.30
2018-12-09T11:46:06.885Z,74.50
2018-12-09T11:48:35.211Z,74.30
2018-12-09T11:51:03.742Z,73.50
2018-12-09T11:53:31.559Z,75.50
2018-12-09T11:55:59.932Z,75.20
2018-12-09T11:58:28.313Z,75.80
2018-12-09T12:00:56.614Z,75.30
2018-12-09T12:03:25.438Z,74.00
2018-12-09T12:05:53.895Z,75.20
2018-12-09T12:08:23.113Z,75.40
2018-12-09T12:10:51.594Z,75.20
2018-12-09T12:13:19.983Z,73.90
2018-12-09T12:15:48.366Z,75.10
2018-12-09T12:18:16.638Z,74.00
2018-12-09T12:20:45.255Z,74.60
2018-12-09T12:23:13.617Z,73.90
2018-12-09T12:25:42.004Z,74.20
2018-12-09T12:28:11.191Z,72.80
2018-12-09T12:30:39.515Z,73.80
2018-12-09T12:33:07.855Z,73.30
2018-12-09T12:35:39.304Z,74.50
2018-12-09T12:38:09.138Z,72.60
2018-12-09T12:40:37.492Z,74.20
2018-12-09T12:43:14.437Z,73.50
2018-12-09T12:45:42.934Z,72.50
2018-12-09T12:48:11.265Z,72.10
2018-12-09T12:50:39.941Z,71.20
2018-12-09T12:56:06.831Z,74.00
2018-12-09T12:58:35.164Z,71.80
2018-12-09T13:01:03.715Z,73.00
2018-12-09T13:03:32.220Z,72.90
2018-12-09T13:06:00.956Z,71.60
2018-12-09T13:08:29.643Z,70.80
2018-12-09T13:10:58.134Z,71.70
2018-12-09T13:13:26.681Z,69.00
2018-12-09T13:15:54.960Z,68.80
2018-12-09T13:18:23.736Z,72.70
2018-12-09T13:20:52.282Z,72.20
2018-12-09T13:23:20.693Z,73.00
2018-12-09T13:25:49.109Z,73.10
2018-12-09T13:28:17.655Z,72.20
2018-12-09T13:33:41.692Z,73.10
2018-12-09T13:36:10.697Z,74.00
2018-12-09T13:38:40.444Z,74.10
2018-12-09T13:41:11.214Z,73.80
2018-12-09T13:43:40.415Z,75.10
2018-12-09T13:46:09.628Z,74.90
2018-12-09T13:48:38.929Z,75.60
2018-12-09T13:51:09.164Z,74.90
2018-12-09T13:53:39.541Z,75.20
2018-12-09T13:56:09.593Z,75.00
2018-12-09T13:58:39.005Z,75.00
2018-12-09T14:01:09.327Z,74.60
2018-12-09T14:03:37.603Z,73.70
2018-12-09T14:06:05.894Z,72.10
2018-12-09T14:08:34.195Z,72.20
2018-12-09T14:11:02.532Z,74.40
2018-12-09T14:13:31.145Z,71.10
2018-12-09T14:15:59.572Z,70.80
2018-12-09T14:18:28.123Z,71.70
2018-12-09T14:20:56.749Z,71.40
2018-12-09T14:23:25.955Z,70.40
2018-12-09T14:25:55.518Z,70.30
2018-12-09T14:28:24.037Z,71.50
2018-12-09T14:30:52.330Z,71.00
2018-12-09T14:33:20.635Z,69.10
2018-12-09T14:35:49.948Z,71.00
2018-12-09T14:38:18.239Z,71.50
2018-12-09T14:40:46.932Z,71.30
2018-12-09T14:43:15.299Z,72.20
2018-12-09T14:45:48.926Z,70.70
2018-12-09T14:48:14.013Z,70.40
2018-12-09T14:50:42.323Z,70.20
2018-12-09T14:53:11.059Z,70.80
2018-12-09T14:55:39.345Z,70.40
2018-12-09T14:58:08.392Z,70.40
2018-12-09T15:00:36.842Z,70.60
2018-12-09T15:03:05.655Z,71.80
2018-12-09T15:05:34.330Z,71.30
2018-12-09T15:08:02.753Z,71.70
2018-12-09T15:10:31.659Z,70.60
2018-12-09T15:13:00.275Z,69.60
2018-12-09T15:17:56.187Z,69.80
2018-12-09T15:20:24.714Z,70.50
2018-12-09T15:22:53.030Z,71.30
2018-12-09T15:25:21.432Z,71.50
2018-12-09T15:27:50.681Z,71.70
2018-12-09T15:30:19.352Z,72.70
2018-12-09T15:32:48.119Z,72.00
2018-12-09T15:35:16.497Z,72.10
2018-12-09T15:37:45.121Z,72.10
2018-12-09T15:40:13.857Z,72.30
2018-12-09T15:42:42.203Z,72.40
2018-12-09T15:47:56.673Z,73.80
2018-12-09T15:50:25.754Z,73.30
2018-12-09T15:53:00.152Z,72.60
2018-12-09T15:55:28.514Z,73.30
2018-12-09T15:57:56.863Z,73.30
2018-12-09T16:00:30.307Z,73.10
2018-12-09T16:02:58.911Z,74.20
2018-12-09T16:05:27.321Z,74.70
2018-12-09T16:07:55.966Z,75.50
2018-12-09T16:10:25.355Z,75.50
2018-12-09T16:12:53.913Z,74.10
2018-12-09T16:15:23.007Z,74.50
2018-12-09T16:17:52.171Z,73.40
2018-12-09T16:20:23.381Z,74.40
2018-12-09T16:22:51.682Z,74.40
2018-12-09T16:25:20.274Z,73.30
2018-12-09T16:27:49.859Z,73.40
2018-12-09T16:30:18.175Z,71.90
2018-12-09T16:32:46.941Z,72.40
2018-12-09T16:35:15.480Z,72.10
2018-12-09T16:37:43.807Z,72.60
2018-12-09T16:40:12.237Z,73.70
2018-12-09T16:42:40.934Z,73.50
2018-12-09T16:45:09.323Z,73.80
2018-12-09T16:47:38.072Z,74.10
2018-12-09T16:50:06.854Z,72.90
2018-12-09T16:52:35.155Z,74.40
2018-12-09T16:55:04.570Z,73.00
2018-12-09T16:57:33.567Z,73.30
2018-12-09T17:00:02.016Z,74.20
2018-12-09T17:02:30.471Z,73.80
2018-12-09T17:04:58.877Z,73.90
2018-12-09T17:07:27.179Z,73.30
2018-12-09T17:09:55.473Z,73.60
2018-12-09T17:12:23.974Z,75.20
2018-12-09T17:15:04.022Z,74.10
2018-12-09T17:17:54.588Z,74.60
2018-12-09T17:20:23.142Z,74.50
2018-12-09T17:22:51.629Z,74.50
2018-12-09T17:25:20.561Z,74.90
2018-12-09T17:27:48.957Z,75.30
2018-12-09T17:30:17.422Z,75.70
2018-12-09T17:36:04.339Z,76.60
2018-12-09T17:38:33.066Z,78.80
2018-12-09T17:41:02.330Z,76.90
2018-12-09T17:43:31.130Z,77.00
2018-12-09T17:46:00.930Z,77.40
2018-12-09T18:02:20.114Z,73.70
2018-12-09T18:04:48.611Z,74.30
2018-12-09T18:07:16.958Z,73.40
2018-12-09T18:09:45.469Z,73.20
2018-12-09T18:12:13.791Z,72.20
2018-12-09T18:14:42.251Z,73.80
2018-12-09T18:17:10.590Z,74.40
2018-12-09T18:19:39.611Z,73.80
2018-12-09T18:22:08.066Z,75.00
2018-12-09T18:24:36.688Z,73.80
2018-12-09T18:27:05.427Z,73.40
2018-12-09T18:29:33.875Z,73.70
2018-12-09T18:32:02.382Z,73.10
2018-12-09T18:34:30.977Z,74.10
2018-12-09T18:36:59.394Z,73.30
2018-12-09T18:39:28.081Z,75.20
2018-12-09T18:41:57.817Z,74.10
2018-12-09T18:44:34.247Z,74.80
2018-12-09T18:47:03.340Z,75.10
2018-12-09T18:49:32.166Z,76.60
2018-12-09T18:52:01.841Z,76.00
2018-12-09T18:54:30.579Z,75.90
2018-12-09T18:56:59.572Z,76.70
2018-12-09T18:59:28.652Z,77.10
2018-12-09T19:01:57.669Z,77.60
2018-12-09T19:04:27.815Z,77.10
2018-12-09T19:06:57.125Z,77.50
2018-12-09T19:09:26.524Z,77.60
2018-12-09T19:11:55.757Z,77.50
2018-12-09T19:14:24.954Z,77.50
2018-12-09T19:16:54.126Z,78.00
2018-12-09T19:19:23.331Z,77.30
2018-12-09T19:21:52.376Z,77.10
2018-12-09T19:24:21.508Z,77.10
2018-12-09T19:26:51.061Z,76.30
2018-12-09T19:29:20.311Z,75.80
2018-12-09T19:31:51.254Z,76.00
2018-12-09T19:34:20.348Z,75.70
2018-12-09T19:36:49.596Z,74.70
2018-12-09T19:39:19.211Z,74.80
2018-12-09T19:41:48.168Z,73.50
2018-12-09T19:44:17.455Z,73.10
2018-12-09T19:46:46.411Z,72.50
2018-12-09T19:49:16.077Z,72.50
2018-12-09T19:51:44.692Z,72.10
2018-12-09T19:54:12.979Z,71.70
2018-12-09T19:56:41.641Z,71.30
2018-12-09T19:59:09.987Z,70.80
2018-12-09T20:01:38.379Z,71.20
2018-12-09T20:04:06.747Z,70.20
2018-12-09T20:06:35.065Z,71.40
2018-12-09T20:09:04.610Z,70.70
2018-12-09T20:11:33.003Z,70.70
2018-12-09T20:14:01.493Z,70.50
2018-12-09T20:16:29.860Z,68.90
2018-12-09T20:18:58.218Z,70.30
2018-12-09T20:21:26.559Z,69.40
2018-12-09T20:23:55.006Z,70.40
2018-12-09T20:26:24.053Z,69.70
2018-12-09T20:28:52.667Z,67.90
2018-12-09T20:31:21.095Z,68.20
2018-12-09T20:33:49.543Z,69.20
2018-12-09T20:36:18.143Z,68.70
2018-12-09T20:38:46.832Z,68.70
2018-12-09T20:41:15.707Z,68.30
2018-12-09T20:43:44.078Z,70.40
2018-12-09T20:46:12.453Z,70.80
2018-12-09T20:48:41.214Z,71.80
2018-12-09T20:51:22.405Z,70.60
2018-12-09T20:53:50.995Z,72.00
2018-12-09T20:56:19.377Z,70.60
2018-12-09T20:58:49.743Z,71.20
2018-12-09T21:01:18.370Z,67.30
2018-12-09T21:03:46.891Z,65.60
2018-12-09T21:09:48.650Z,64.60
2018-12-09T21:12:18.364Z,63.40
2018-12-09T21:14:47.145Z,63.90
2018-12-09T21:17:15.602Z,66.80
2018-12-09T21:19:45.075Z,67.60
2018-12-09T21:22:14.161Z,67.90
2018-12-09T21:24:43.433Z,68.20
2018-12-09T21:27:11.950Z,68.20
2018-12-09T21:29:40.466Z,68.10
2018-12-09T21:32:10.723Z,66.60
2018-12-09T21:34:40.406Z,67.80
2018-12-09T21:37:11.062Z,67.70
2018-12-09T21:42:56.767Z,67.80
2018-12-09T21:45:38.146Z,68.00
2018-12-09T21:48:13.016Z,69.60
2018-12-09T21:50:42.885Z,71.80
2018-12-09T21:53:12.669Z,69.80
2018-12-09T21:55:41.392Z,71.00
2018-12-09T21:58:09.788Z,71.60
2018-12-09T22:00:38.192Z,68.60
2018-12-09T22:03:08.716Z,67.40
2018-12-09T22:05:37.315Z,66.00
2018-12-09T22:08:05.885Z,62.20
2018-12-09T22:10:34.368Z,64.10
2018-12-09T22:13:02.791Z,64.50
2018-12-09T22:15:31.296Z,62.00
2018-12-09T22:17:59.823Z,65.00
2018-12-09T22:20:28.819Z,62.60
2018-12-09T22:22:57.228Z,62.00
2018-12-09T22:25:26.226Z,62.90
2018-12-09T22:27:55.016Z,61.30
2018-12-09T22:30:23.473Z,63.40
2018-12-09T22:32:51.807Z,64.00
2018-12-09T22:35:20.254Z,63.80
2018-12-09T22:37:49.232Z,64.10
2018-12-09T22:40:17.649Z,65.20
2018-12-09T22:42:46.096Z,63.00
2018-12-09T22:45:14.420Z,65.50
2018-12-09T22:47:42.724Z,66.60
2018-12-09T22:50:11.054Z,68.40
2018-12-09T22:52:39.385Z,70.30
2018-12-09T22:55:07.780Z,70.90
2018-12-09T22:57:36.241Z,70.00
2018-12-09T23:00:09.898Z,68.70
2018-12-09T23:02:43.668Z,68.60
2018-12-09T23:05:12.040Z,69.70
2018-12-09T23:07:46.374Z,70.50
2018-12-09T23:10:14.820Z,69.80
2018-12-09T23:12:43.205Z,69.90
2018-12-09T23:15:13.565Z,68.10
2018-12-09T23:17:41.901Z,68.60
2018-12-09T23:20:10.983Z,67.80
2018-12-09T23:22:39.354Z,67.10
2018-12-09T23:25:07.897Z,67.60
2018-12-09T23:27:36.371Z,68.30
2018-12-09T23:30:06.493Z,69.00
2018-12-09T23:32:35.054Z,69.20
2018-12-09T23:35:03.542Z,69.60
2018-12-09T23:37:32.063Z,68.30
2018-12-09T23:40:00.463Z,68.80
2018-12-09T23:42:28.907Z,68.50
2018-12-09T23:44:57.379Z,67.80
2018-12-09T23:47:26.765Z,67.80
2018-12-09T23:49:56.314Z,69.10
2018-12-09T23:52:24.739Z,69.80
2018-12-09T23:54:53.042Z,68.00
2018-12-09T23:57:21.529Z,70.40
2018-12-09T23:59:49.985Z,68.70
